Suula — OJKZ — position and weather

sailwx.info

Track history (hours):
 
Tides and Currents Weather Stations Pressure Air Temp Water Temp Dewpoint Dewpoint Depression Visibility Wind Speed Wind Dir Waves Ship Positions

Suula

Last reported at 2017-Nov-17 07:22 UTC. Time now 2017-Nov-18 14:13 UTC.
Position N 60°10' E 025°36'.

Length 140 m; draft 6.5 m.

Type: Tanker. MMSI: 230956996.

Date/timePositionNaut miles runAvg speedWind from/ knotsBaromVisibWave heightAir tempDewpointWater temp
2017-Nov-17 07:22N 60°10' E 025°36'512.8
2017-Nov-17 06:58N 60°05' E 025°35'714.2
2017-Nov-17 06:30N 59°59' E 025°31'713.1
2017-Nov-17 06:00N 59°54' E 025°22'713.2
2017-Nov-17 05:30N 59°50' E 025°12'612.9
2017-Nov-17 05:00N 59°48' E 024°60'713.0
2017-Nov-17 04:30N 59°47' E 024°47'612.9
2017-Nov-17 04:00N 59°45' E 024°35'613.0
2017-Nov-17 03:30N 59°44' E 024°22'712.9
2017-Nov-17 02:59N 59°42' E 024°09'612.9
2017-Nov-17 02:30N 59°40' E 023°58'612.9
2017-Nov-17 02:00N 59°38' E 023°46'612.8
2017-Nov-17 01:30N 59°36' E 023°33'612.9
2017-Nov-17 01:00N 59°34' E 023°21'15712.6
2017-Nov-16 12:32N 58°48' E 018°29'512.7
2017-Nov-16 12:08N 58°46' E 018°20'212.6
2017-Nov-16 11:58N 58°46' E 018°16'612.4
2017-Nov-16 11:30N 58°47' E 018°05'610.9
2017-Nov-16 11:00N 58°52' E 018°00'3 7.0
2017-Nov-16 10:31N 58°55' E 017°58'0 0.0
2017-Nov-16 10:00N 58°55' E 017°58'0 0.0
2017-Nov-16 09:27N 58°55' E 017°58'0 0.0
2017-Nov-16 09:00N 58°55' E 017°58'0 0.0
2017-Nov-16 08:30N 58°55' E 017°58'0 0.0
2017-Nov-16 08:00N 58°55' E 017°58'0 0.0
2017-Nov-16 07:30N 58°55' E 017°58'0 0.0
2017-Nov-16 07:00N 58°55' E 017°58'0 0.0
2017-Nov-16 06:30N 58°55' E 017°58'0 0.0
2017-Nov-16 05:57N 58°55' E 017°58'0 0.0
2017-Nov-16 05:30N 58°55' E 017°58'0 0.0
2017-Nov-16 04:57N 58°55' E 017°58'0 0.0
2017-Nov-16 04:27N 58°55' E 017°58'0 0.0
2017-Nov-16 04:00N 58°55' E 017°58'0 0.0
2017-Nov-16 03:27N 58°55' E 017°58'0 0.0
2017-Nov-16 02:54N 58°55' E 017°58'0 0.0
2017-Nov-16 02:30N 58°55' E 017°58'0 0.0
2017-Nov-16 02:00N 58°55' E 017°58'0 0.0
2017-Nov-16 01:30N 58°55' E 017°58'0 0.0
2017-Nov-16 01:00N 58°55' E 017°58'0 0.0
2017-Nov-16 00:27N 58°55' E 017°58'0 0.0
2017-Nov-16 00:00N 58°55' E 017°58'0 0.0
2017-Nov-15 23:27N 58°55' E 017°58'0 0.0
2017-Nov-15 23:00N 58°55' E 017°58'0 0.0
2017-Nov-15 22:27N 58°55' E 017°58'0 0.0
2017-Nov-15 22:00N 58°55' E 017°58'0 0.0
2017-Nov-15 21:30N 58°55' E 017°58'0 0.0
2017-Nov-15 20:57N 58°55' E 017°58'0 0.0
2017-Nov-15 20:30N 58°55' E 017°58'0 0.0
2017-Nov-15 20:00N 58°55' E 017°58'0 0.0
2017-Nov-15 19:30N 58°55' E 017°58'0 0.0
2017-Nov-15 18:57N 58°55' E 017°58'0 0.0
2017-Nov-15 18:27N 58°55' E 017°58'0 0.0
2017-Nov-15 17:57N 58°55' E 017°58'0 0.0
2017-Nov-15 17:30N 58°55' E 017°58'0 0.0
2017-Nov-15 17:00N 58°55' E 017°58'0 0.0
2017-Nov-15 16:30N 58°55' E 017°58'0 0.0
2017-Nov-15 16:00N 58°55' E 017°58'0 0.0
2017-Nov-15 15:23N 58°55' E 017°58'0 0.0
2017-Nov-15 14:56N 58°55' E 017°58'0 0.0
2017-Nov-15 14:29N 58°55' E 017°58'0 0.0
2017-Nov-15 13:35N 58°55' E 017°58'0 0.0
2017-Nov-15 13:29N 58°55' E 017°58'0 0.0
2017-Nov-15 12:59N 58°55' E 017°58'0 0.0
2017-Nov-15 12:29N 58°55' E 017°58'0 0.0
2017-Nov-15 12:00N 58°55' E 017°58'0 0.6
2017-Nov-15 11:30N 58°55' E 017°59'5 9.5
2017-Nov-15 11:00N 58°50' E 017°60'612.8
2017-Nov-15 10:31N 58°45' E 018°08'611.9
2017-Nov-15 09:59N 58°44' E 018°20'610.9
2017-Nov-15 09:27N 58°46' E 018°30'33 9.2
2017-Nov-15 05:51N 59°16' E 018°56'410.7
2017-Nov-15 05:30N 59°18' E 018°50'612.2
2017-Nov-15 05:01N 59°23' E 018°42'611.1
2017-Nov-15 04:30N 59°24' E 018°31'4 7.6
2017-Nov-15 04:00N 59°25' E 018°24'4 7.3
2017-Nov-15 03:30N 59°22' E 018°25'510.0
2017-Nov-15 03:00N 59°21' E 018°15'4 7.0
2017-Nov-15 02:31N 59°21' E 018°08'0 0.1
2017-Nov-15 01:59N 59°21' E 018°08'0 0.0
2017-Nov-15 01:29N 59°21' E 018°08'0 0.0
2017-Nov-15 00:59N 59°21' E 018°08'0 0.0
2017-Nov-15 00:29N 59°21' E 018°08'0 0.0
2017-Nov-14 23:59N 59°21' E 018°08'0 0.0
2017-Nov-14 23:29N 59°21' E 018°08'0 0.0
2017-Nov-14 22:59N 59°21' E 018°08'0 0.0
2017-Nov-14 22:29N 59°21' E 018°08'0 0.0
2017-Nov-14 21:59N 59°21' E 018°08'0 0.0
2017-Nov-14 21:29N 59°21' E 018°08'0 0.0
2017-Nov-14 20:59N 59°21' E 018°08'0 0.0
2017-Nov-14 20:29N 59°21' E 018°08'0 0.0
2017-Nov-14 19:59N 59°21' E 018°08'0 0.0
2017-Nov-14 19:29N 59°21' E 018°08'0 0.0
2017-Nov-14 18:59N 59°21' E 018°08'0 0.0
2017-Nov-14 18:29N 59°21' E 018°08'0 0.0
2017-Nov-14 17:59N 59°21' E 018°08'0 0.0
2017-Nov-14 17:29N 59°21' E 018°08'0 0.0
2017-Nov-14 16:59N 59°21' E 018°08'0 0.0
2017-Nov-14 16:29N 59°21' E 018°08'0 0.0
2017-Nov-14 15:59N 59°21' E 018°08'0 0.0
2017-Nov-14 15:29N 59°21' E 018°08'0 0.0
2017-Nov-14 14:59N 59°21' E 018°08'0 0.0
2017-Nov-14 14:29N 59°21' E 018°08'0 0.0
2017-Nov-14 13:59N 59°21' E 018°08'0 0.0
2017-Nov-14 13:29N 59°21' E 018°08'0 0.0
2017-Nov-14 12:59N 59°21' E 018°08'0 0.2
2017-Nov-14 12:31N 59°21' E 018°08'2 3.1
2017-Nov-14 12:00N 59°20' E 018°11'5 9.2
2017-Nov-14 11:31N 59°23' E 018°19'4 8.3
2017-Nov-14 11:00N 59°23' E 018°27'4 8.2
2017-Nov-14 10:30N 59°27' E 018°25'511.1
2017-Nov-14 10:00N 59°23' E 018°34'611.2
2017-Nov-14 09:30N 59°22' E 018°45'611.2
2017-Nov-14 08:56N 59°18' E 018°53'510.0
2017-Nov-14 08:27N 59°15' E 019°01'1 1.0
2017-Nov-14 07:19N 59°14' E 019°02'0 0.0
2017-Nov-14 06:52N 59°14' E 019°02'0 0.1
2017-Nov-14 06:25N 59°14' E 019°02'2 4.8
2017-Nov-14 06:00N 59°14' E 019°05'4 7.9
2017-Nov-14 05:26N 59°12' E 019°14'3 6.9
2017-Nov-14 04:59N 59°13' E 019°20'510.0
2017-Nov-14 04:30N 59°14' E 019°29'5110.5
2017-Nov-13 23:40N 59°22' E 021°07'210.4
2017-Nov-13 23:30N 59°22' E 021°10'510.4
2017-Nov-13 23:00N 59°23' E 021°20'510.3
2017-Nov-13 22:30N 59°24' E 021°30'510.4
2017-Nov-13 22:00N 59°25' E 021°40'128 2.7
2017-Nov-11 21:36N 60°09' E 025°39'412.6
2017-Nov-11 21:17N 60°05' E 025°36'413.1
2017-Nov-11 21:00N 60°02' E 025°34'611.9
2017-Nov-11 20:30N 59°58' E 025°24'5 9.8
2017-Nov-11 20:00N 59°55' E 025°18'5 9.5
2017-Nov-11 19:30N 59°50' E 025°14'611.5
2017-Nov-11 19:00N 59°48' E 025°03'611.8
2017-Nov-11 18:30N 59°46' E 024°52'611.1
2017-Nov-11 18:00N 59°46' E 024°41'612.0
2017-Nov-11 17:30N 59°44' E 024°29'612.0
2017-Nov-11 16:59N 59°43' E 024°17'612.2
2017-Nov-11 16:30N 59°41' E 024°06'612.4
2017-Nov-11 16:00N 59°39' E 023°54'612.2
2017-Nov-11 15:30N 59°37' E 023°43'612.4
2017-Nov-11 15:00N 59°36' E 023°31'712.4
2017-Nov-11 14:29N 59°34' E 023°19'611.7
2017-Nov-11 13:57N 59°31' E 023°08'4211.6
2017-Nov-11 10:19N 59°28' E 021°45'412.4
2017-Nov-11 10:00N 59°29' E 021°37'612.3
2017-Nov-11 09:30N 59°31' E 021°26'612.3
2017-Nov-11 09:00N 59°32' E 021°14'612.3
2017-Nov-11 08:30N 59°34' E 021°02'3711.8
2017-Nov-11 05:23N 59°45' E 019°53'511.8
2017-Nov-11 04:58N 59°46' E 019°43'612.2
2017-Nov-11 04:30N 59°50' E 019°37'612.4
2017-Nov-11 04:00N 59°55' E 019°29'612.2
2017-Nov-11 03:30N 59°60' E 019°21'612.4
2017-Nov-11 03:00N 60°04' E 019°13'612.7
2017-Nov-11 02:30N 60°09' E 019°05'611.6
2017-Nov-11 02:00N 60°15' E 019°01'612.5
2017-Nov-11 01:30N 60°21' E 018°60'2 0.1
2017-Nov-09 14:10N 60°22' E 019°02'317.1
2017-Nov-09 13:58N 60°19' E 019°01'816.5
2017-Nov-09 13:30N 60°12' E 019°07'816.5
2017-Nov-09 13:01N 60°06' E 019°18'916.7
2017-Nov-09 12:30N 59°59' E 019°28'1216.3
2017-Nov-09 11:45N 59°49' E 019°43'4114.8
2017-Nov-09 08:58N 59°33' E 020°58'715.7
2017-Nov-09 08:30N 59°32' E 021°12'815.9
2017-Nov-09 08:01N 59°31' E 021°28'815.5
2017-Nov-09 07:31N 59°30' E 021°43'815.6
2017-Nov-09 07:00N 59°31' E 021°58'3415.6
2017-Nov-09 04:48N 59°38' E 023°05'515.6
2017-Nov-09 04:30N 59°39' E 023°14'815.4
2017-Nov-09 04:01N 59°40' E 023°28'815.7
2017-Nov-09 03:31N 59°42' E 023°43'815.7
2017-Nov-09 03:00N 59°44' E 023°58'1015.8
2017-Nov-09 02:22N 59°47' E 024°18'615.9
2017-Nov-09 02:00N 59°48' E 024°29'815.9
2017-Nov-09 01:30N 59°50' E 024°44'815.6
2017-Nov-09 01:01N 59°51' E 024°60'815.5
2017-Nov-09 00:31N 59°54' E 025°14'815.6
2017-Nov-09 00:00N 59°58' E 025°28'712.5
2017-Nov-08 23:29N 60°04' E 025°34'714.7
2017-Nov-08 22:59N 60°11' E 025°36'  
Track history (hours):
 
Tides and Currents Weather Stations Pressure Air Temp Water Temp Dewpoint Dewpoint Depression Visibility Wind Speed Wind Dir Waves Ship Positions

Suula

Last reported at 2017-Nov-17 07:22 UTC. Time now 2017-Nov-18 14:13 UTC.
Position N 60°10' E 025°36'.

Length 140 m; draft 6.5 m.

Type: Tanker. MMSI: 230956996.

Date/timePositionNaut miles runAvg speedWind from/ knotsBaromVisibWave heightAir tempDewpointWater temp
2017-Nov-17 07:22N 60°10' E 025°36'512.8
2017-Nov-17 06:58N 60°05' E 025°35'714.2
2017-Nov-17 06:30N 59°59' E 025°31'713.1
2017-Nov-17 06:00N 59°54' E 025°22'713.2
2017-Nov-17 05:30N 59°50' E 025°12'612.9
2017-Nov-17 05:00N 59°48' E 024°60'713.0
2017-Nov-17 04:30N 59°47' E 024°47'612.9
2017-Nov-17 04:00N 59°45' E 024°35'613.0
2017-Nov-17 03:30N 59°44' E 024°22'712.9
2017-Nov-17 02:59N 59°42' E 024°09'612.9
2017-Nov-17 02:30N 59°40' E 023°58'612.9
2017-Nov-17 02:00N 59°38' E 023°46'612.8
2017-Nov-17 01:30N 59°36' E 023°33'612.9
2017-Nov-17 01:00N 59°34' E 023°21'15712.6
2017-Nov-16 12:32N 58°48' E 018°29'512.7
2017-Nov-16 12:08N 58°46' E 018°20'212.6
2017-Nov-16 11:58N 58°46' E 018°16'612.4
2017-Nov-16 11:30N 58°47' E 018°05'610.9
2017-Nov-16 11:00N 58°52' E 018°00'3 7.0
2017-Nov-16 10:31N 58°55' E 017°58'0 0.0
2017-Nov-16 10:00N 58°55' E 017°58'0 0.0
2017-Nov-16 09:27N 58°55' E 017°58'0 0.0
2017-Nov-16 09:00N 58°55' E 017°58'0 0.0
2017-Nov-16 08:30N 58°55' E 017°58'0 0.0
2017-Nov-16 08:00N 58°55' E 017°58'0 0.0
2017-Nov-16 07:30N 58°55' E 017°58'0 0.0
2017-Nov-16 07:00N 58°55' E 017°58'0 0.0
2017-Nov-16 06:30N 58°55' E 017°58'0 0.0
2017-Nov-16 05:57N 58°55' E 017°58'0 0.0
2017-Nov-16 05:30N 58°55' E 017°58'0 0.0
2017-Nov-16 04:57N 58°55' E 017°58'0 0.0
2017-Nov-16 04:27N 58°55' E 017°58'0 0.0
2017-Nov-16 04:00N 58°55' E 017°58'0 0.0
2017-Nov-16 03:27N 58°55' E 017°58'0 0.0
2017-Nov-16 02:54N 58°55' E 017°58'0 0.0
2017-Nov-16 02:30N 58°55' E 017°58'0 0.0
2017-Nov-16 02:00N 58°55' E 017°58'0 0.0
2017-Nov-16 01:30N 58°55' E 017°58'0 0.0
2017-Nov-16 01:00N 58°55' E 017°58'0 0.0
2017-Nov-16 00:27N 58°55' E 017°58'0 0.0
2017-Nov-16 00:00N 58°55' E 017°58'0 0.0
2017-Nov-15 23:27N 58°55' E 017°58'0 0.0
2017-Nov-15 23:00N 58°55' E 017°58'0 0.0
2017-Nov-15 22:27N 58°55' E 017°58'0 0.0
2017-Nov-15 22:00N 58°55' E 017°58'0 0.0
2017-Nov-15 21:30N 58°55' E 017°58'0 0.0
2017-Nov-15 20:57N 58°55' E 017°58'0 0.0
2017-Nov-15 20:30N 58°55' E 017°58'0 0.0
2017-Nov-15 20:00N 58°55' E 017°58'0 0.0
2017-Nov-15 19:30N 58°55' E 017°58'0 0.0
2017-Nov-15 18:57N 58°55' E 017°58'0 0.0
2017-Nov-15 18:27N 58°55' E 017°58'0 0.0
2017-Nov-15 17:57N 58°55' E 017°58'0 0.0
2017-Nov-15 17:30N 58°55' E 017°58'0 0.0
2017-Nov-15 17:00N 58°55' E 017°58'0 0.0
2017-Nov-15 16:30N 58°55' E 017°58'0 0.0
2017-Nov-15 16:00N 58°55' E 017°58'0 0.0
2017-Nov-15 15:23N 58°55' E 017°58'0 0.0
2017-Nov-15 14:56N 58°55' E 017°58'0 0.0
2017-Nov-15 14:29N 58°55' E 017°58'0 0.0
2017-Nov-15 13:35N 58°55' E 017°58'0 0.0
2017-Nov-15 13:29N 58°55' E 017°58'0 0.0
2017-Nov-15 12:59N 58°55' E 017°58'0 0.0
2017-Nov-15 12:29N 58°55' E 017°58'0 0.0
2017-Nov-15 12:00N 58°55' E 017°58'0 0.6
2017-Nov-15 11:30N 58°55' E 017°59'5 9.5
2017-Nov-15 11:00N 58°50' E 017°60'612.8
2017-Nov-15 10:31N 58°45' E 018°08'611.9
2017-Nov-15 09:59N 58°44' E 018°20'610.9
2017-Nov-15 09:27N 58°46' E 018°30'33 9.2
2017-Nov-15 05:51N 59°16' E 018°56'410.7
2017-Nov-15 05:30N 59°18' E 018°50'612.2
2017-Nov-15 05:01N 59°23' E 018°42'611.1
2017-Nov-15 04:30N 59°24' E 018°31'4 7.6
2017-Nov-15 04:00N 59°25' E 018°24'4 7.3
2017-Nov-15 03:30N 59°22' E 018°25'510.0
2017-Nov-15 03:00N 59°21' E 018°15'4 7.0
2017-Nov-15 02:31N 59°21' E 018°08'0 0.1
2017-Nov-15 01:59N 59°21' E 018°08'0 0.0
2017-Nov-15 01:29N 59°21' E 018°08'0 0.0
2017-Nov-15 00:59N 59°21' E 018°08'0 0.0
2017-Nov-15 00:29N 59°21' E 018°08'0 0.0
2017-Nov-14 23:59N 59°21' E 018°08'0 0.0
2017-Nov-14 23:29N 59°21' E 018°08'0 0.0
2017-Nov-14 22:59N 59°21' E 018°08'0 0.0
2017-Nov-14 22:29N 59°21' E 018°08'0 0.0
2017-Nov-14 21:59N 59°21' E 018°08'0 0.0
2017-Nov-14 21:29N 59°21' E 018°08'0 0.0
2017-Nov-14 20:59N 59°21' E 018°08'0 0.0
2017-Nov-14 20:29N 59°21' E 018°08'0 0.0
2017-Nov-14 19:59N 59°21' E 018°08'0 0.0
2017-Nov-14 19:29N 59°21' E 018°08'0 0.0
2017-Nov-14 18:59N 59°21' E 018°08'0 0.0
2017-Nov-14 18:29N 59°21' E 018°08'0 0.0
2017-Nov-14 17:59N 59°21' E 018°08'0 0.0
2017-Nov-14 17:29N 59°21' E 018°08'0 0.0
2017-Nov-14 16:59N 59°21' E 018°08'0 0.0
2017-Nov-14 16:29N 59°21' E 018°08'0 0.0
2017-Nov-14 15:59N 59°21' E 018°08'0 0.0
2017-Nov-14 15:29N 59°21' E 018°08'0 0.0
2017-Nov-14 14:59N 59°21' E 018°08'0 0.0
2017-Nov-14 14:29N 59°21' E 018°08'0 0.0
2017-Nov-14 13:59N 59°21' E 018°08'0 0.0
2017-Nov-14 13:29N 59°21' E 018°08'0 0.0
2017-Nov-14 12:59N 59°21' E 018°08'0 0.2
2017-Nov-14 12:31N 59°21' E 018°08'2 3.1
2017-Nov-14 12:00N 59°20' E 018°11'5 9.2
2017-Nov-14 11:31N 59°23' E 018°19'4 8.3
2017-Nov-14 11:00N 59°23' E 018°27'4 8.2
2017-Nov-14 10:30N 59°27' E 018°25'511.1
2017-Nov-14 10:00N 59°23' E 018°34'611.2
2017-Nov-14 09:30N 59°22' E 018°45'611.2
2017-Nov-14 08:56N 59°18' E 018°53'510.0
2017-Nov-14 08:27N 59°15' E 019°01'1 1.0
2017-Nov-14 07:19N 59°14' E 019°02'0 0.0
2017-Nov-14 06:52N 59°14' E 019°02'0 0.1
2017-Nov-14 06:25N 59°14' E 019°02'2 4.8
2017-Nov-14 06:00N 59°14' E 019°05'4 7.9
2017-Nov-14 05:26N 59°12' E 019°14'3 6.9
2017-Nov-14 04:59N 59°13' E 019°20'510.0
2017-Nov-14 04:30N 59°14' E 019°29'5110.5
2017-Nov-13 23:40N 59°22' E 021°07'210.4
2017-Nov-13 23:30N 59°22' E 021°10'510.4
2017-Nov-13 23:00N 59°23' E 021°20'510.3
2017-Nov-13 22:30N 59°24' E 021°30'510.4
2017-Nov-13 22:00N 59°25' E 021°40'128 2.7
2017-Nov-11 21:36N 60°09' E 025°39'412.6
2017-Nov-11 21:17N 60°05' E 025°36'413.1
2017-Nov-11 21:00N 60°02' E 025°34'611.9
2017-Nov-11 20:30N 59°58' E 025°24'5 9.8
2017-Nov-11 20:00N 59°55' E 025°18'5 9.5
2017-Nov-11 19:30N 59°50' E 025°14'611.5
2017-Nov-11 19:00N 59°48' E 025°03'611.8
2017-Nov-11 18:30N 59°46' E 024°52'611.1
2017-Nov-11 18:00N 59°46' E 024°41'612.0
2017-Nov-11 17:30N 59°44' E 024°29'612.0
2017-Nov-11 16:59N 59°43' E 024°17'612.2
2017-Nov-11 16:30N 59°41' E 024°06'612.4
2017-Nov-11 16:00N 59°39' E 023°54'612.2
2017-Nov-11 15:30N 59°37' E 023°43'612.4
2017-Nov-11 15:00N 59°36' E 023°31'712.4
2017-Nov-11 14:29N 59°34' E 023°19'611.7
2017-Nov-11 13:57N 59°31' E 023°08'4211.6
2017-Nov-11 10:19N 59°28' E 021°45'412.4
2017-Nov-11 10:00N 59°29' E 021°37'612.3
2017-Nov-11 09:30N 59°31' E 021°26'612.3
2017-Nov-11 09:00N 59°32' E 021°14'612.3
2017-Nov-11 08:30N 59°34' E 021°02'3711.8
2017-Nov-11 05:23N 59°45' E 019°53'511.8
2017-Nov-11 04:58N 59°46' E 019°43'612.2
2017-Nov-11 04:30N 59°50' E 019°37'612.4
2017-Nov-11 04:00N 59°55' E 019°29'612.2
2017-Nov-11 03:30N 59°60' E 019°21'612.4
2017-Nov-11 03:00N 60°04' E 019°13'612.7
2017-Nov-11 02:30N 60°09' E 019°05'611.6
2017-Nov-11 02:00N 60°15' E 019°01'612.5
2017-Nov-11 01:30N 60°21' E 018°60'2 0.1
2017-Nov-09 14:10N 60°22' E 019°02'317.1
2017-Nov-09 13:58N 60°19' E 019°01'816.5
2017-Nov-09 13:30N 60°12' E 019°07'816.5
2017-Nov-09 13:01N 60°06' E 019°18'916.7
2017-Nov-09 12:30N 59°59' E 019°28'1216.3
2017-Nov-09 11:45N 59°49' E 019°43'4114.8
2017-Nov-09 08:58N 59°33' E 020°58'715.7
2017-Nov-09 08:30N 59°32' E 021°12'815.9
2017-Nov-09 08:01N 59°31' E 021°28'815.5
2017-Nov-09 07:31N 59°30' E 021°43'815.6
2017-Nov-09 07:00N 59°31' E 021°58'3415.6
2017-Nov-09 04:48N 59°38' E 023°05'515.6
2017-Nov-09 04:30N 59°39' E 023°14'815.4
2017-Nov-09 04:01N 59°40' E 023°28'815.7
2017-Nov-09 03:31N 59°42' E 023°43'815.7
2017-Nov-09 03:00N 59°44' E 023°58'1015.8
2017-Nov-09 02:22N 59°47' E 024°18'615.9
2017-Nov-09 02:00N 59°48' E 024°29'815.9
2017-Nov-09 01:30N 59°50' E 024°44'815.6
2017-Nov-09 01:01N 59°51' E 024°60'815.5
2017-Nov-09 00:31N 59°54' E 025°14'815.6
2017-Nov-09 00:00N 59°58' E 025°28'712.5
2017-Nov-08 23:29N 60°04' E 025°34'714.7
2017-Nov-08 22:59N 60°11' E 025°36'  

Dump ship's entire track history